createdAt,value
2023-02-15T00:00:58.458Z,95.50
2023-02-15T00:01:58.491Z,94.78
2023-02-15T00:02:58.487Z,94.04
2023-02-15T00:03:58.451Z,93.46
2023-02-15T00:04:58.419Z,93.35
2023-02-15T00:05:58.523Z,92.31
2023-02-15T00:06:58.401Z,92.88
2023-02-15T00:07:58.398Z,93.25
2023-02-15T00:08:58.386Z,93.46
2023-02-15T00:09:58.383Z,93.77
2023-02-15T00:10:58.362Z,93.98
2023-02-15T00:11:58.352Z,92.98
2023-02-15T00:12:58.342Z,92.52
2023-02-15T00:13:58.334Z,92.35
2023-02-15T00:14:58.331Z,92.04
2023-02-15T00:15:58.459Z,92.08
2023-02-15T00:16:58.305Z,92.66
2023-02-15T00:17:58.296Z,93.29
2023-02-15T00:18:58.285Z,93.50
2023-02-15T00:19:58.363Z,92.77
2023-02-15T00:20:58.269Z,92.46
2023-02-15T00:21:58.267Z,91.94
2023-02-15T00:22:58.247Z,91.10
2023-02-15T00:23:58.253Z,91.10
2023-02-15T00:24:58.228Z,91.31
2023-02-15T00:25:58.341Z,91.20
2023-02-15T00:26:58.215Z,91.41
2023-02-15T00:27:58.200Z,92.04
2023-02-15T00:28:58.188Z,92.19
2023-02-15T00:29:58.224Z,92.66
2023-02-15T00:30:58.300Z,92.29
2023-02-15T00:31:58.167Z,91.87
2023-02-15T00:32:58.150Z,92.60
2023-02-15T00:33:58.141Z,92.56
2023-02-15T00:34:58.136Z,92.50
2023-02-15T00:35:58.314Z,92.08
2023-02-15T00:36:58.110Z,92.50
2023-02-15T00:37:58.106Z,92.08
2023-02-15T00:38:58.093Z,92.19
2023-02-15T00:39:58.083Z,91.98
2023-02-15T00:40:58.073Z,92.50
2023-02-15T00:41:58.080Z,92.29
2023-02-15T00:42:58.051Z,92.50
2023-02-15T00:43:58.047Z,93.33
2023-02-15T00:44:58.037Z,94.07
2023-02-15T00:45:58.102Z,93.50
2023-02-15T00:46:58.036Z,93.50
2023-02-15T00:47:58.008Z,93.86
2023-02-15T00:48:58.009Z,93.50
2023-02-15T00:49:58.006Z,94.34
2023-02-15T00:50:57.975Z,94.13
2023-02-15T00:51:57.987Z,94.34
2023-02-15T00:52:57.957Z,94.19
2023-02-15T00:53:57.950Z,94.23
2023-02-15T00:54:57.945Z,94.34
2023-02-15T00:55:57.927Z,94.19
2023-02-15T00:56:57.932Z,93.19
2023-02-15T00:58:00.982Z,92.56
2023-02-15T00:58:57.950Z,91.20
2023-02-15T00:59:57.891Z,90.47
2023-02-15T01:00:57.897Z,91.20
2023-02-15T01:01:57.871Z,90.93
2023-02-15T01:02:57.862Z,91.35
2023-02-15T01:03:57.927Z,90.83
2023-02-15T01:04:57.840Z,91.25
2023-02-15T01:05:57.836Z,91.98
2023-02-15T01:06:57.851Z,92.71
2023-02-15T01:07:57.839Z,92.19
2023-02-15T01:08:57.812Z,92.40
2023-02-15T01:09:57.794Z,92.71
2023-02-15T01:10:57.784Z,91.77
2023-02-15T01:11:57.779Z,92.13
2023-02-15T01:12:57.764Z,92.75
2023-02-15T01:13:57.769Z,92.23
2023-02-15T01:14:57.745Z,92.02
2023-02-15T01:15:57.810Z,92.65
2023-02-15T01:16:57.727Z,91.71
2023-02-15T01:17:57.717Z,91.28
2023-02-15T01:18:57.709Z,91.18
2023-02-15T01:19:57.696Z,91.18
2023-02-15T01:20:57.688Z,91.18
2023-02-15T01:21:57.680Z,90.81
2023-02-15T01:22:57.685Z,91.22
2023-02-15T01:23:57.702Z,91.75
2023-02-15T01:24:57.649Z,91.75
2023-02-15T01:25:57.646Z,92.27
2023-02-15T01:26:58.006Z,92.48
2023-02-15T01:27:57.619Z,92.90
2023-02-15T01:28:57.609Z,93.63
2023-02-15T01:29:57.623Z,93.63
2023-02-15T01:30:57.765Z,93.21
2023-02-15T01:31:57.674Z,93.01
2023-02-15T01:32:57.567Z,93.11
2023-02-15T01:33:57.560Z,92.90
2023-02-15T01:34:57.551Z,92.48
2023-02-15T01:35:57.541Z,92.44
2023-02-15T01:36:57.531Z,92.90
2023-02-15T01:37:57.522Z,92.48
2023-02-15T01:38:57.510Z,92.06
2023-02-15T01:39:57.544Z,92.16
2023-02-15T01:40:57.509Z,92.16
2023-02-15T01:41:57.492Z,91.96
2023-02-15T01:42:57.474Z,92.38
2023-02-15T01:43:57.475Z,92.27
2023-02-15T01:44:57.460Z,92.38
2023-02-15T01:45:57.572Z,92.79
2023-02-15T01:46:57.434Z,92.48
2023-02-15T01:47:57.422Z,92.79
2023-02-15T01:48:57.421Z,92.16
2023-02-15T01:49:57.403Z,92.48
2023-02-15T01:50:57.392Z,92.27
2023-02-15T01:51:57.383Z,92.69
2023-02-15T01:52:57.374Z,92.06
2023-02-15T01:53:57.364Z,91.43
2023-02-15T01:54:57.351Z,91.85
2023-02-15T01:55:57.359Z,91.75
2023-02-15T01:56:57.332Z,92.21
2023-02-15T01:57:57.320Z,91.89
2023-02-15T01:58:57.312Z,92.83
2023-02-15T01:59:57.303Z,92.52
2023-02-15T02:00:58.260Z,92.63
2023-02-15T02:01:57.279Z,92.94
2023-02-15T02:02:57.309Z,92.94
2023-02-15T02:03:57.258Z,92.63
2023-02-15T02:04:57.252Z,92.94
2023-02-15T02:05:57.248Z,93.04
2023-02-15T02:06:57.229Z,93.15
2023-02-15T02:07:57.219Z,94.20
2023-02-15T02:08:57.211Z,93.67
2023-02-15T02:09:57.198Z,94.20
2023-02-15T02:10:57.188Z,93.57
2023-02-15T02:11:57.204Z,93.95
2023-02-15T02:12:57.165Z,93.52
2023-02-15T02:13:57.158Z,93.74
2023-02-15T02:14:57.150Z,93.63
2023-02-15T02:15:57.170Z,93.42
2023-02-15T02:16:57.136Z,93.21
2023-02-15T02:17:57.120Z,92.27
2023-02-15T02:18:57.107Z,92.38
2023-02-15T02:19:57.099Z,92.27
2023-02-15T02:20:57.100Z,92.69
2023-02-15T02:21:57.086Z,93.11
2023-02-15T02:22:57.067Z,93.21
2023-02-15T02:23:57.057Z,93.42
2023-02-15T02:24:57.051Z,92.69
2023-02-15T02:25:57.038Z,91.81
2023-02-15T02:26:57.028Z,90.91
2023-02-15T02:27:57.035Z,90.81
2023-02-15T02:28:57.007Z,90.49
2023-02-15T02:29:57.013Z,90.49
2023-02-15T02:30:57.175Z,90.39
2023-02-15T02:31:57.040Z,90.53
2023-02-15T02:32:56.972Z,90.53
2023-02-15T02:33:56.960Z,90.53
2023-02-15T02:34:56.952Z,90.95
2023-02-15T02:35:56.937Z,91.27
2023-02-15T02:36:56.929Z,90.95
2023-02-15T02:37:56.919Z,90.84
2023-02-15T02:38:56.906Z,91.27
2023-02-15T02:39:56.898Z,91.47
2023-02-15T02:40:56.886Z,91.62
2023-02-15T02:41:56.887Z,92.14
2023-02-15T02:42:56.871Z,91.94
2023-02-15T02:43:56.875Z,92.46
2023-02-15T02:44:56.847Z,92.73
2023-02-15T02:45:56.839Z,92.83
2023-02-15T02:46:56.829Z,93.78
2023-02-15T02:47:56.817Z,93.78
2023-02-15T02:48:56.806Z,93.78
2023-02-15T02:49:56.800Z,94.09
2023-02-15T02:50:56.785Z,92.94
2023-02-15T02:51:56.776Z,92.73
2023-02-15T02:52:56.765Z,92.73
2023-02-15T02:53:56.759Z,92.00
2023-02-15T02:54:56.756Z,91.16
2023-02-15T02:55:56.737Z,91.37
2023-02-15T02:56:56.726Z,91.79
2023-02-15T02:57:56.724Z,92.00
2023-02-15T02:58:56.704Z,92.63
2023-02-15T02:59:56.711Z,92.73
2023-02-15T03:00:56.687Z,92.94
2023-02-15T03:01:56.704Z,93.57
2023-02-15T03:02:56.808Z,93.36
2023-02-15T03:03:56.659Z,92.94
2023-02-15T03:04:56.644Z,92.31
2023-02-15T03:05:56.635Z,92.00
2023-02-15T03:06:56.623Z,92.42
2023-02-15T03:07:56.614Z,92.00
2023-02-15T03:08:56.604Z,92.00
2023-02-15T03:09:56.596Z,91.89
2023-02-15T03:10:56.596Z,91.83
2023-02-15T03:11:56.574Z,91.52
2023-02-15T03:12:56.565Z,90.99
2023-02-15T03:13:56.557Z,91.20
2023-02-15T03:14:56.548Z,90.99
2023-02-15T03:15:56.606Z,90.68
2023-02-15T03:16:56.531Z,91.41
2023-02-15T03:17:56.514Z,92.14
2023-02-15T03:18:56.509Z,92.77
2023-02-15T03:19:56.494Z,92.98
2023-02-15T03:20:56.497Z,92.67
2023-02-15T03:21:56.478Z,92.94
2023-02-15T03:22:56.470Z,93.04
2023-02-15T03:23:56.463Z,92.52
2023-02-15T03:24:56.449Z,92.63
2023-02-15T03:25:56.437Z,92.42
2023-02-15T03:26:56.428Z,92.21
2023-02-15T03:27:56.416Z,91.94
2023-02-15T03:28:56.408Z,91.41
2023-02-15T03:29:56.437Z,90.89
2023-02-15T03:30:56.396Z,90.99
2023-02-15T03:31:57.005Z,91.20
2023-02-15T03:32:56.367Z,91.09
2023-02-15T03:33:56.356Z,90.83
2023-02-15T03:34:56.350Z,91.41
2023-02-15T03:35:56.337Z,92.14
2023-02-15T03:36:56.328Z,92.50
2023-02-15T03:37:56.315Z,92.98
2023-02-15T03:38:56.305Z,93.08
2023-02-15T03:39:56.297Z,92.88
2023-02-15T03:40:56.288Z,92.77
2023-02-15T03:41:56.273Z,92.14
2023-02-15T03:42:56.268Z,91.24
2023-02-15T03:43:56.254Z,91.56
2023-02-15T03:44:56.242Z,91.46
2023-02-15T03:45:56.232Z,91.56
2023-02-15T03:46:56.269Z,92.40
2023-02-15T03:47:56.235Z,91.98
2023-02-15T03:48:56.201Z,92.92
2023-02-15T03:49:56.191Z,92.92
2023-02-15T03:50:56.197Z,91.98
2023-02-15T03:51:56.173Z,92.82
2023-02-15T03:52:56.159Z,92.40
2023-02-15T03:53:56.151Z,92.29
2023-02-15T03:54:56.141Z,92.82
2023-02-15T03:55:56.132Z,92.08
2023-02-15T03:56:56.121Z,92.29
2023-02-15T03:57:56.113Z,92.29
2023-02-15T03:58:56.104Z,92.08
2023-02-15T03:59:56.100Z,93.02
2023-02-15T04:00:56.137Z,92.08
2023-02-15T04:01:56.069Z,92.92
2023-02-15T04:02:56.101Z,93.44
2023-02-15T04:03:56.073Z,94.18
2023-02-15T04:04:56.041Z,93.87
2023-02-15T04:05:56.027Z,94.28
2023-02-15T04:06:56.018Z,94.07
2023-02-15T04:07:56.004Z,94.60
2023-02-15T04:08:56.001Z,94.38
2023-02-15T04:09:55.983Z,94.45
2023-02-15T04:10:55.995Z,94.45
2023-02-15T04:11:55.962Z,94.76
2023-02-15T04:12:55.955Z,95.70
2023-02-15T04:13:55.953Z,95.70
2023-02-15T04:14:55.953Z,95.50
2023-02-15T04:15:55.924Z,95.50
2023-02-15T04:16:55.993Z,94.82
2023-02-15T04:17:55.903Z,94.62
2023-02-15T04:18:55.901Z,93.71
2023-02-15T04:19:55.896Z,92.63
2023-02-15T04:20:55.869Z,92.35
2023-02-15T04:21:55.862Z,92.57
2023-02-15T04:22:55.855Z,92.35
2023-02-15T04:23:55.835Z,92.57
2023-02-15T04:24:55.842Z,92.98
2023-02-15T04:25:55.812Z,92.88
2023-02-15T04:26:55.814Z,93.08
2023-02-15T04:27:55.798Z,93.30
2023-02-15T04:28:55.783Z,94.13
2023-02-15T04:29:55.795Z,93.82
2023-02-15T04:30:55.816Z,94.13
2023-02-15T04:31:55.808Z,93.71
2023-02-15T04:32:55.745Z,92.98
2023-02-15T04:33:55.732Z,92.88
2023-02-15T04:34:55.720Z,92.67
2023-02-15T04:35:55.727Z,92.08
2023-02-15T04:36:55.716Z,92.08
2023-02-15T04:37:55.688Z,91.77
2023-02-15T04:38:55.679Z,92.50
2023-02-15T04:39:55.666Z,92.25
2023-02-15T04:40:55.657Z,92.29
2023-02-15T04:41:55.647Z,92.82
2023-02-15T04:42:55.638Z,92.40
2023-02-15T04:43:55.627Z,91.87
2023-02-15T04:44:55.627Z,91.56
2023-02-15T04:45:55.676Z,92.29
2023-02-15T04:46:55.599Z,92.50
2023-02-15T04:47:55.591Z,92.82
2023-02-15T04:48:55.581Z,92.82
2023-02-15T04:49:58.009Z,92.98
2023-02-15T04:50:55.556Z,92.92
2023-02-15T04:51:55.560Z,92.35
2023-02-15T04:52:55.535Z,92.19
2023-02-15T04:53:55.522Z,91.35
2023-02-15T04:54:55.516Z,91.09
2023-02-15T04:55:55.502Z,90.93
2023-02-15T04:56:55.498Z,91.77
2023-02-15T04:57:55.483Z,92.23
2023-02-15T04:58:55.472Z,92.29
2023-02-15T04:59:55.461Z,92.92
2023-02-15T05:00:55.511Z,92.08
2023-02-15T05:01:55.447Z,92.71
2023-02-15T05:02:55.432Z,92.92
2023-02-15T05:03:55.432Z,93.55
2023-02-15T05:04:55.416Z,93.61
2023-02-15T05:05:55.399Z,94.49
2023-02-15T05:06:55.408Z,93.71
2023-02-15T05:07:55.408Z,94.56
2023-02-15T05:08:55.370Z,93.88
2023-02-15T05:09:55.356Z,94.51
2023-02-15T05:10:55.351Z,92.77
2023-02-15T05:11:55.344Z,92.57
2023-02-15T05:12:55.326Z,92.04
2023-02-15T05:13:55.319Z,92.14
2023-02-15T05:14:55.308Z,92.46
2023-02-15T05:15:55.306Z,92.82
2023-02-15T05:16:55.373Z,92.57
2023-02-15T05:17:55.280Z,93.55
2023-02-15T05:18:55.274Z,93.24
2023-02-15T05:19:55.272Z,93.02
2023-02-15T05:20:55.242Z,92.92
2023-02-15T05:21:55.231Z,92.08
2023-02-15T05:22:55.224Z,92.29
2023-02-15T05:23:55.232Z,92.23
2023-02-15T05:24:55.202Z,92.61
2023-02-15T05:25:55.195Z,91.91
2023-02-15T05:26:55.192Z,92.13
2023-02-15T05:27:55.179Z,92.86
2023-02-15T05:28:55.192Z,92.65
2023-02-15T05:29:55.238Z,93.24
2023-02-15T05:30:55.321Z,93.76
2023-02-15T05:31:55.409Z,94.07
2023-02-15T05:32:55.187Z,94.49
2023-02-15T05:33:55.119Z,94.34
2023-02-15T05:34:55.124Z,94.56
2023-02-15T05:35:55.091Z,94.45
2023-02-15T05:36:55.093Z,93.71
2023-02-15T05:37:55.071Z,92.98
2023-02-15T05:38:55.064Z,92.77
2023-02-15T05:39:55.070Z,91.98
2023-02-15T05:40:55.045Z,92.92
2023-02-15T05:41:55.039Z,93.02
2023-02-15T05:42:55.024Z,93.44
2023-02-15T05:43:55.010Z,94.24
2023-02-15T05:44:55.000Z,93.71
2023-02-15T05:45:55.042Z,94.18
2023-02-15T05:46:54.986Z,94.49
2023-02-15T05:47:54.966Z,94.66
2023-02-15T05:48:54.965Z,94.60
2023-02-15T05:49:54.949Z,94.60
2023-02-15T05:50:54.943Z,93.55
2023-02-15T05:51:54.932Z,93.02
2023-02-15T05:52:54.916Z,92.92
2023-02-15T05:53:54.908Z,92.50
2023-02-15T05:54:54.896Z,91.77
2023-02-15T05:55:54.904Z,92.86
2023-02-15T05:56:54.871Z,92.44
2023-02-15T05:57:54.865Z,92.96
2023-02-15T05:58:54.868Z,93.07
2023-02-15T05:59:54.861Z,93.70
2023-02-15T06:00:54.853Z,94.64
2023-02-15T06:01:54.824Z,93.80
2023-02-15T06:02:54.844Z,94.07
2023-02-15T06:03:54.843Z,94.22
2023-02-15T06:04:54.800Z,92.96
2023-02-15T06:05:54.785Z,92.54
2023-02-15T06:06:54.789Z,92.23
2023-02-15T06:07:54.775Z,91.60
2023-02-15T06:08:55.527Z,91.28
2023-02-15T06:09:54.741Z,91.50
2023-02-15T06:10:54.732Z,91.43
2023-02-15T06:11:54.741Z,91.64
2023-02-15T06:12:54.710Z,92.16
2023-02-15T06:13:54.697Z,92.48
2023-02-15T06:14:54.687Z,92.06
2023-02-15T06:15:54.730Z,92.58
2023-02-15T06:16:54.673Z,93.11
2023-02-15T06:17:54.657Z,93.11
2023-02-15T06:18:54.645Z,93.21
2023-02-15T06:19:54.635Z,93.74
2023-02-15T06:20:54.629Z,93.95
2023-02-15T06:21:54.614Z,94.06
2023-02-15T06:22:54.606Z,93.84
2023-02-15T06:23:54.594Z,93.32
2023-02-15T06:24:54.584Z,93.11
2023-02-15T06:25:54.589Z,93.11
2023-02-15T06:26:54.562Z,92.58
2023-02-15T06:27:54.567Z,93.11
2023-02-15T06:28:54.543Z,92.27
2023-02-15T06:29:54.579Z,92.06
2023-02-15T06:30:54.589Z,92.27
2023-02-15T06:31:54.675Z,92.21
2023-02-15T06:32:54.500Z,92.21
2023-02-15T06:33:54.487Z,92.63
2023-02-15T06:34:54.480Z,92.94
2023-02-15T06:35:54.465Z,93.15
2023-02-15T06:36:54.806Z,93.88
2023-02-15T06:37:54.447Z,93.99
2023-02-15T06:38:54.455Z,93.84
2023-02-15T06:39:54.425Z,93.84
2023-02-15T06:40:54.414Z,94.06
2023-02-15T06:41:54.403Z,93.88
2023-02-15T06:42:54.391Z,93.63
2023-02-15T06:43:54.404Z,93.95
2023-02-15T06:44:54.373Z,94.16
2023-02-15T06:45:54.360Z,94.79
2023-02-15T06:46:54.433Z,94.47
2023-02-15T06:47:54.346Z,94.79
2023-02-15T06:48:54.336Z,94.89
2023-02-15T06:49:54.324Z,94.85
2023-02-15T06:50:54.310Z,95.27
2023-02-15T06:51:54.306Z,94.95
2023-02-15T06:52:54.302Z,94.38
2023-02-15T06:53:54.284Z,93.70
2023-02-15T06:54:54.270Z,93.55
2023-02-15T06:55:54.254Z,92.44
2023-02-15T06:56:54.252Z,92.13
2023-02-15T06:57:54.235Z,92.02
2023-02-15T06:58:54.417Z,91.91
2023-02-15T06:59:54.248Z,91.81
2023-02-15T07:00:54.216Z,92.13
2023-02-15T07:01:54.294Z,92.19
2023-02-15T07:02:54.185Z,92.86
2023-02-15T07:03:54.197Z,92.92
2023-02-15T07:04:54.335Z,92.82
2023-02-15T07:05:54.165Z,92.92
2023-02-15T07:06:54.317Z,92.29
2023-02-15T07:07:54.123Z,92.50
2023-02-15T07:08:54.118Z,92.40
2023-02-15T07:09:54.107Z,92.82
2023-02-15T07:10:54.096Z,92.50
2023-02-15T07:11:54.079Z,92.08
2023-02-15T07:12:54.075Z,91.66
2023-02-15T07:13:54.057Z,91.35
2023-02-15T07:14:54.054Z,90.93
2023-02-15T07:15:54.134Z,91.56
2023-02-15T07:16:54.035Z,91.56
2023-02-15T07:17:54.030Z,92.19
2023-02-15T07:18:54.008Z,92.19
2023-02-15T07:19:54.000Z,92.13
2023-02-15T07:20:53.992Z,92.71
2023-02-15T07:21:53.974Z,92.61
2023-02-15T07:22:53.966Z,92.71
2023-02-15T07:23:53.955Z,93.02
2023-02-15T07:24:53.941Z,93.65
2023-02-15T07:25:53.928Z,93.76
2023-02-15T07:26:53.919Z,93.70
2023-02-15T07:27:53.923Z,94.49
2023-02-15T07:28:53.895Z,94.28
2023-02-15T07:29:53.905Z,94.07
2023-02-15T07:30:53.889Z,94.38
2023-02-15T07:31:53.959Z,94.38
2023-02-15T07:32:53.857Z,95.75
2023-02-15T07:33:53.847Z,95.39
2023-02-15T07:34:53.837Z,96.02
2023-02-15T07:35:53.825Z,96.02
2023-02-15T07:36:53.812Z,95.66
2023-02-15T07:37:53.802Z,95.76
2023-02-15T07:38:53.792Z,95.66
2023-02-15T07:39:53.798Z,95.66
2023-02-15T07:40:56.393Z,95.93
2023-02-15T07:41:53.761Z,95.93
2023-02-15T07:42:54.112Z,95.72
2023-02-15T07:43:53.752Z,95.51
2023-02-15T07:44:53.741Z,95.83
2023-02-15T07:45:53.722Z,95.72
2023-02-15T07:46:53.795Z,95.62
2023-02-15T07:47:53.780Z,95.57
2023-02-15T07:48:53.694Z,95.68
2023-02-15T07:49:53.680Z,95.78
2023-02-15T07:50:53.673Z,95.57
2023-02-15T07:51:53.659Z,95.68
2023-02-15T07:52:53.642Z,95.74
2023-02-15T07:53:53.635Z,95.78
2023-02-15T07:54:53.631Z,96.05
2023-02-15T07:55:53.614Z,96.05
2023-02-15T07:57:53.594Z,95.53
2023-02-15T07:58:53.607Z,96.05
2023-02-15T07:59:53.569Z,96.22
2023-02-15T08:00:53.566Z,96.01
2023-02-15T08:01:53.553Z,96.01
2023-02-15T08:02:53.564Z,96.33
2023-02-15T08:03:54.402Z,96.64
2023-02-15T08:04:53.522Z,96.53
2023-02-15T08:05:53.509Z,96.59
2023-02-15T08:06:53.509Z,96.28
2023-02-15T08:07:53.488Z,96.28
2023-02-15T08:08:53.480Z,95.97
2023-02-15T08:09:53.469Z,96.28
2023-02-15T08:10:53.470Z,96.38
2023-02-15T08:11:53.454Z,96.34
2023-02-15T08:12:53.653Z,97.07
2023-02-15T08:14:53.423Z,97.28
2023-02-15T08:15:53.416Z,96.97
2023-02-15T08:16:53.523Z,96.97
2023-02-15T08:17:53.397Z,97.24
2023-02-15T08:18:53.382Z,97.34
2023-02-15T08:19:53.399Z,96.92
2023-02-15T08:20:53.365Z,96.82
2023-02-15T08:21:53.355Z,97.09
2023-02-15T08:22:53.348Z,96.67
2023-02-15T08:23:53.350Z,97.09
2023-02-15T08:24:53.335Z,97.04
2023-02-15T08:25:53.321Z,96.83
2023-02-15T08:27:53.297Z,96.62
2023-02-15T08:29:53.307Z,96.79
2023-02-15T08:30:53.301Z,96.79
2023-02-15T08:31:53.424Z,96.89
2023-02-15T08:32:53.246Z,97.20
2023-02-15T08:33:53.241Z,96.79
2023-02-15T08:34:53.233Z,96.75
2023-02-15T08:35:53.331Z,96.95
2023-02-15T08:36:53.210Z,96.49
2023-02-15T08:37:53.197Z,96.49
2023-02-15T08:38:53.198Z,97.01
2023-02-15T08:39:53.177Z,97.33
2023-02-15T08:40:53.171Z,96.76
2023-02-15T08:41:53.159Z,97.17
2023-02-15T08:42:53.153Z,97.13
2023-02-15T08:43:53.142Z,96.72
2023-02-15T08:44:53.152Z,97.03
2023-02-15T08:45:53.242Z,97.44
2023-02-15T08:46:53.115Z,97.03
2023-02-15T08:47:53.103Z,97.65
2023-02-15T08:48:53.090Z,97.55
2023-02-15T08:49:53.080Z,97.44
2023-02-15T08:50:53.073Z,97.81
2023-02-15T08:51:53.084Z,97.92
2023-02-15T08:52:53.057Z,97.61
2023-02-15T08:53:53.041Z,97.81
2023-02-15T08:54:53.032Z,97.56
2023-02-15T08:55:53.085Z,97.45
2023-02-15T08:56:53.021Z,97.25
2023-02-15T08:57:53.003Z,97.04
2023-02-15T08:58:52.995Z,97.41
2023-02-15T08:59:52.985Z,96.89
2023-02-15T09:00:53.015Z,96.79
2023-02-15T09:01:53.096Z,96.79
2023-02-15T09:02:52.963Z,96.48
2023-02-15T09:03:52.945Z,96.54
2023-02-15T09:04:52.946Z,95.86
2023-02-15T09:05:52.929Z,95.81
2023-02-15T09:06:52.918Z,95.09
2023-02-15T09:07:52.932Z,94.84
2023-02-15T09:08:52.909Z,94.84
2023-02-15T09:09:52.902Z,94.84
2023-02-15T09:10:52.881Z,94.63
2023-02-15T09:11:57.682Z,93.80
2023-02-15T09:12:52.862Z,92.97
2023-02-15T09:13:53.055Z,93.70
2023-02-15T09:14:52.845Z,92.61
2023-02-15T09:15:52.835Z,93.02
2023-02-15T09:16:52.859Z,92.61
2023-02-15T09:17:52.815Z,93.33
2023-02-15T09:18:52.805Z,93.33
2023-02-15T09:19:52.793Z,92.82
2023-02-15T09:20:52.801Z,93.23
2023-02-15T09:21:52.774Z,93.08
2023-02-15T09:22:55.047Z,93.33
2023-02-15T09:23:52.831Z,93.29
2023-02-15T09:24:52.752Z,93.50
2023-02-15T09:25:52.738Z,92.78
2023-02-15T09:26:52.729Z,93.04
2023-02-15T09:27:52.723Z,91.91
2023-02-15T09:28:52.722Z,91.80
2023-02-15T09:29:52.749Z,90.04
2023-02-15T09:30:52.764Z,89.38
2023-02-15T09:31:52.709Z,89.17
2023-02-15T09:32:52.680Z,88.55
2023-02-15T09:33:52.665Z,88.34
2023-02-15T09:34:52.670Z,89.07
2023-02-15T09:35:52.652Z,89.65
2023-02-15T09:36:52.658Z,90.06
2023-02-15T09:37:52.639Z,90.37
2023-02-15T09:38:52.618Z,89.44
2023-02-15T09:39:52.628Z,89.34
2023-02-15T09:40:52.603Z,89.40
2023-02-15T09:41:52.642Z,89.40
2023-02-15T09:42:52.584Z,89.13
2023-02-15T09:43:52.571Z,89.19
2023-02-15T09:44:52.564Z,89.29
2023-02-15T09:45:52.609Z,89.09
2023-02-15T09:46:52.548Z,88.36
2023-02-15T09:47:52.536Z,87.33
2023-02-15T09:48:52.533Z,87.33
2023-02-15T09:49:52.517Z,87.74
2023-02-15T09:50:52.527Z,87.85
2023-02-15T09:51:52.502Z,87.85
2023-02-15T09:52:52.497Z,88.36
2023-02-15T09:53:52.483Z,88.46
2023-02-15T09:54:52.492Z,88.67
2023-02-15T09:55:52.555Z,88.46
2023-02-15T09:56:52.468Z,88.32
2023-02-15T09:57:52.460Z,88.53
2023-02-15T09:58:52.448Z,88.32
2023-02-15T09:59:52.441Z,87.60
2023-02-15T10:00:52.457Z,87.18
2023-02-15T10:01:52.414Z,87.15
2023-02-15T10:02:52.409Z,86.94
2023-02-15T10:03:52.400Z,86.01
2023-02-15T10:04:52.441Z,84.87
2023-02-15T10:05:52.381Z,84.66
2023-02-15T10:06:52.375Z,84.73
2023-02-15T10:07:52.360Z,84.63
2023-02-15T10:08:52.354Z,84.11
2023-02-15T10:09:52.347Z,83.70
2023-02-15T10:10:52.352Z,84.00
2023-02-15T10:11:52.392Z,83.49
2023-02-15T10:12:52.320Z,83.18
2023-02-15T10:13:52.509Z,82.97
2023-02-15T10:14:52.318Z,84.00
2023-02-15T10:15:52.294Z,84.73
2023-02-15T10:16:52.328Z,84.59
2023-02-15T10:17:52.281Z,84.79
2023-02-15T10:18:52.267Z,84.69
2023-02-15T10:19:52.260Z,83.76
2023-02-15T10:20:52.250Z,84.17
2023-02-15T10:21:52.256Z,83.65
2023-02-15T10:22:52.234Z,83.76
2023-02-15T10:23:52.225Z,83.25
2023-02-15T10:24:52.221Z,84.17
2023-02-15T10:25:52.213Z,83.86
2023-02-15T10:26:52.200Z,84.59
2023-02-15T10:27:52.207Z,84.59
2023-02-15T10:28:52.193Z,84.07
2023-02-15T10:29:52.197Z,84.59
2023-02-15T10:30:52.217Z,83.97
2023-02-15T10:31:52.311Z,84.07
2023-02-15T10:32:52.147Z,84.38
2023-02-15T10:33:52.137Z,84.48
2023-02-15T10:34:52.130Z,84.79
2023-02-15T10:35:53.774Z,84.59
2023-02-15T10:36:52.118Z,84.59
2023-02-15T10:37:52.103Z,84.07
2023-02-15T10:38:52.096Z,84.75
2023-02-15T10:39:52.087Z,83.10
2023-02-15T10:40:52.079Z,82.79
2023-02-15T10:41:52.070Z,82.38
2023-02-15T10:42:52.061Z,82.14
2023-02-15T10:43:52.075Z,82.03
2023-02-15T10:44:52.056Z,82.07
2023-02-15T10:45:52.108Z,81.72
2023-02-15T10:46:52.026Z,82.24
2023-02-15T10:47:52.018Z,81.41
2023-02-15T10:48:52.018Z,81.82
2023-02-15T10:49:52.004Z,81.62
2023-02-15T10:50:51.992Z,82.34
2023-02-15T10:51:51.985Z,82.14
2023-02-15T10:52:51.977Z,83.06
2023-02-15T10:53:51.975Z,82.96
2023-02-15T10:54:51.959Z,82.34
2023-02-15T10:55:51.948Z,81.82
2023-02-15T10:56:51.945Z,82.51
2023-02-15T10:57:51.937Z,82.82
2023-02-15T10:58:51.924Z,82.82
2023-02-15T10:59:51.972Z,82.30
2023-02-15T11:00:51.908Z,82.20
2023-02-15T11:01:51.956Z,82.30
2023-02-15T11:02:51.892Z,81.99
2023-02-15T11:03:51.884Z,82.51
2023-02-15T11:04:51.944Z,82.30
2023-02-15T11:05:51.868Z,81.58
2023-02-15T11:06:51.858Z,81.68
2023-02-15T11:07:51.849Z,81.07
2023-02-15T11:08:51.843Z,81.27
2023-02-15T11:09:51.842Z,81.07
2023-02-15T11:10:51.832Z,81.48
2023-02-15T11:11:51.825Z,81.27
2023-02-15T11:12:51.817Z,81.75
2023-02-15T11:13:51.801Z,81.44
2023-02-15T11:14:51.802Z,80.82
2023-02-15T11:15:51.831Z,80.93
2023-02-15T11:16:51.779Z,80.30
2023-02-15T11:17:51.766Z,80.82
2023-02-15T11:18:51.757Z,81.13
2023-02-15T11:19:51.749Z,81.51
2023-02-15T11:20:51.742Z,81.23
2023-02-15T11:21:51.732Z,80.68
2023-02-15T11:22:51.724Z,80.37
2023-02-15T11:23:51.731Z,80.06
2023-02-15T11:24:51.722Z,80.47
2023-02-15T11:25:51.702Z,80.79
2023-02-15T11:26:51.694Z,80.37
2023-02-15T11:27:51.780Z,80.06
2023-02-15T11:28:51.680Z,80.37
2023-02-15T11:29:51.704Z,80.75
2023-02-15T11:30:51.750Z,80.68
2023-02-15T11:31:51.765Z,79.34
2023-02-15T11:32:51.648Z,79.55
2023-02-15T11:33:51.641Z,79.41
2023-02-15T11:34:51.637Z,79.55
2023-02-15T11:35:51.618Z,80.06
2023-02-15T11:36:51.613Z,80.79
2023-02-15T11:37:51.601Z,79.96
2023-02-15T11:38:51.600Z,79.30
2023-02-15T11:39:51.584Z,80.58
2023-02-15T11:40:51.578Z,79.20
2023-02-15T11:41:51.568Z,79.55
2023-02-15T11:42:51.559Z,80.13
2023-02-15T11:43:51.551Z,80.02
2023-02-15T11:44:51.547Z,79.61
2023-02-15T11:45:51.546Z,79.20
2023-02-15T11:46:51.561Z,79.24
2023-02-15T11:47:51.547Z,80.79
2023-02-15T11:48:51.516Z,79.72
2023-02-15T11:49:51.502Z,79.30
2023-02-15T11:50:51.497Z,79.51
2023-02-15T11:51:51.491Z,78.89
2023-02-15T11:52:51.480Z,79.10
2023-02-15T11:53:51.476Z,78.34
2023-02-15T11:54:51.464Z,78.28
2023-02-15T11:55:51.458Z,78.65
2023-02-15T11:56:51.448Z,79.00
2023-02-15T11:57:51.442Z,78.96
2023-02-15T11:58:51.442Z,79.06
2023-02-15T11:59:51.424Z,78.86
2023-02-15T12:00:51.437Z,78.14
2023-02-15T12:01:51.408Z,78.24
2023-02-15T12:02:51.443Z,79.06
2023-02-15T12:03:51.573Z,78.86
2023-02-15T12:04:51.385Z,78.65
2023-02-15T12:05:51.378Z,78.55
2023-02-15T12:06:51.367Z,79.16
2023-02-15T12:07:51.358Z,78.55
2023-02-15T12:08:51.352Z,78.34
2023-02-15T12:09:51.346Z,77.93
2023-02-15T12:10:51.338Z,77.93
2023-02-15T12:11:51.327Z,78.34
2023-02-15T12:12:51.318Z,78.72
2023-02-15T12:13:51.314Z,78.82
2023-02-15T12:14:51.309Z,78.55
2023-02-15T12:15:51.348Z,79.23
2023-02-15T12:16:51.314Z,78.30
2023-02-15T12:17:51.294Z,78.72
2023-02-15T12:18:51.271Z,78.61
2023-02-15T12:19:51.393Z,78.20
2023-02-15T12:20:51.262Z,77.89
2023-02-15T12:21:51.252Z,78.41
2023-02-15T12:22:51.241Z,78.30
2023-02-15T12:23:51.241Z,78.72
2023-02-15T12:24:51.224Z,78.00
2023-02-15T12:25:51.259Z,78.30
2023-02-15T12:26:51.216Z,77.69
2023-02-15T12:27:51.207Z,77.65
2023-02-15T12:28:51.196Z,77.45
2023-02-15T12:29:51.221Z,78.27
2023-02-15T12:30:51.243Z,77.45
2023-02-15T12:31:51.359Z,77.24
2023-02-15T12:32:51.172Z,77.24
2023-02-15T12:33:51.166Z,77.96
2023-02-15T12:34:51.182Z,78.47
2023-02-15T12:35:51.184Z,78.27
2023-02-15T12:36:51.141Z,78.27
2023-02-15T12:37:51.130Z,77.34
2023-02-15T12:38:51.119Z,77.96
2023-02-15T12:39:51.125Z,78.06
2023-02-15T12:40:51.106Z,77.86
2023-02-15T12:41:51.099Z,77.75
2023-02-15T12:42:51.092Z,77.55
2023-02-15T12:43:51.082Z,77.55
2023-02-15T12:44:51.073Z,77.41
2023-02-15T12:45:51.065Z,77.72
2023-02-15T12:46:51.095Z,78.23
2023-02-15T12:47:51.051Z,78.78
2023-02-15T12:48:51.044Z,78.23
2023-02-15T12:49:51.037Z,78.75
2023-02-15T12:50:58.273Z,79.09
2023-02-15T12:51:51.040Z,79.71
2023-02-15T12:52:51.010Z,79.19
2023-02-15T12:53:51.010Z,78.37
2023-02-15T12:54:50.997Z,78.99
2023-02-15T12:55:50.991Z,79.50
2023-02-15T12:56:50.980Z,79.81